Time;durP1;ratioP1;P1;durP2;ratioP2;P2;SDS_P1;SDS_P2;PMS_P1;PMS_P2;Temp;Humidity;BMP_temperature;BMP_pressure;BME280_temperature;BME280_humidity;BME280_pressure;Samples;Min_cycle;Max_cycle;Signal;HPM_P1;HPM_P2
2022/11/02 00:01:29;;;;;;;3.50;1.90;;;;;;;7.27;100.00;96971.41;10493851;28;20187;-74
2022/11/02 00:06:30;;;;;;;3.53;1.80;;;;;;;7.37;100.00;96972.31;10475740;28;20324;-75
2022/11/02 00:11:30;;;;;;;7.07;2.00;;;;;;;7.72;100.00;96973.69;10493302;28;20244;-74
2022/11/02 00:16:32;;;;;;;3.33;1.90;;;;;;;8.04;100.00;96964.84;10475091;28;20274;-75
2022/11/02 00:21:32;;;;;;;6.20;2.20;;;;;;;8.07;100.00;96969.81;10493435;28;20184;-76
2022/11/02 00:26:35;;;;;;;6.03;2.00;;;;;;;7.87;100.00;96971.50;10492881;28;20207;-76
2022/11/02 00:31:35;;;;;;;4.10;1.63;;;;;;;7.88;100.00;96978.38;10492803;28;20563;-75
2022/11/02 00:36:35;;;;;;;5.07;1.80;;;;;;;7.78;100.00;96980.13;10492432;28;20203;-76
2022/11/02 00:41:36;;;;;;;5.07;1.70;;;;;;;7.61;100.00;96979.81;10474562;28;20639;-75
2022/11/02 00:46:37;;;;;;;5.17;2.03;;;;;;;7.59;100.00;96983.50;10473366;28;20238;-76
2022/11/02 00:51:37;;;;;;;2.93;1.50;;;;;;;7.79;100.00;96969.56;10473657;28;20310;-76
2022/11/02 00:56:38;;;;;;;3.10;1.63;;;;;;;7.75;100.00;96973.41;10473886;28;20187;-76
2022/11/02 01:01:39;;;;;;;3.03;1.37;;;;;;;7.92;100.00;96958.91;10473736;28;20681;-76
2022/11/02 01:06:40;;;;;;;4.07;1.40;;;;;;;8.23;100.00;96952.78;10491302;28;20233;-76
2022/11/02 01:11:42;;;;;;;4.00;1.20;;;;;;;8.25;100.00;96941.22;10490953;28;20191;-75
2022/11/02 01:16:43;;;;;;;3.83;1.30;;;;;;;8.37;100.00;96937.53;10490712;28;20214;-75
2022/11/02 01:21:43;;;;;;;5.47;1.23;;;;;;;8.43;99.36;96923.13;10473005;28;20229;-75
2022/11/02 01:26:44;;;;;;;3.40;1.20;;;;;;;8.49;96.41;96906.94;10488910;28;20219;-75
2022/11/02 01:31:44;;;;;;;3.10;1.23;;;;;;;8.37;95.36;96905.38;10470481;28;20183;-76
2022/11/02 01:36:45;;;;;;;3.00;1.20;;;;;;;8.59;92.33;96882.59;10472393;28;20210;-76
2022/11/02 01:41:50;;;;;;;4.40;1.20;;;;;;;8.66;90.69;96868.84;10490832;28;20183;-75
2022/11/02 01:46:52;;;;;;;2.80;1.10;;;;;;;8.75;90.14;96869.78;10490406;28;20239;-76
2022/11/02 01:52:01;;;;;;;1.93;1.17;;;;;;;8.97;89.41;96873.84;10490130;28;20235;-76
2022/11/02 01:57:04;;;;;;;4.00;1.70;;;;;;;9.00;89.65;96875.34;10477526;28;20191;-75
2022/11/02 02:02:07;;;;;;;6.67;1.60;;;;;;;9.02;89.06;96873.41;10478742;28;20307;-76
2022/11/02 02:07:10;;;;;;;5.60;1.20;;;;;;;9.12;88.65;96882.03;10463709;28;20211;-76
2022/11/02 02:12:12;;;;;;;2.97;1.30;;;;;;;9.09;89.66;96884.94;10479845;28;20643;-76
2022/11/02 02:17:37;;;;;;;4.90;1.27;;;;;;;9.17;88.59;96879.81;10498030;28;20176;-76
2022/11/02 02:22:57;;;;;;;5.97;1.40;;;;;;;9.12;89.75;96897.72;10462490;28;20547;-76
2022/11/02 02:28:25;;;;;;;3.00;1.20;;;;;;;9.19;90.36;96904.03;10497866;28;20667;-75
2022/11/02 02:33:34;;;;;;;5.37;1.33;;;;;;;9.13;90.97;96911.59;10478895;28;20219;-76
2022/11/02 02:38:41;;;;;;;3.47;1.10;;;;;;;9.10;91.72;96910.13;10462676;28;20256;-75
2022/11/02 02:43:46;;;;;;;3.97;1.20;;;;;;;8.91;92.64;96922.28;10495902;28;20663;-75
2022/11/02 02:48:47;;;;;;;8.13;1.90;;;;;;;8.51;95.79;96938.13;10462643;28;20302;-76
2022/11/02 02:53:57;;;;;;;7.03;1.60;;;;;;;8.47;97.22;96942.81;10412025;28;20235;-76
2022/11/02 02:59:03;;;;;;;6.27;1.50;;;;;;;8.24;99.88;96957.03;10396335;28;20267;-75
2022/11/02 03:04:04;;;;;;;2.77;1.30;;;;;;;8.28;100.00;96961.84;10411173;28;20251;-76
2022/11/02 03:09:31;;;;;;;7.97;1.87;;;;;;;8.42;100.00;96965.84;10413328;28;20266;-76
2022/11/02 03:14:48;;;;;;;6.27;1.40;;;;;;;8.28;100.00;96961.03;10412956;28;20192;-76
2022/11/02 03:20:06;;;;;;;7.63;1.60;;;;;;;8.17;100.00;96957.56;10428111;28;20562;-75
2022/11/02 03:25:23;;;;;;;6.07;1.30;;;;;;;8.01;100.00;96949.47;10394761;28;20196;-76
2022/11/02 03:30:27;;;;;;;3.70;1.43;;;;;;;8.11;100.00;96950.28;10411762;28;20212;-75
2022/11/02 03:35:32;;;;;;;6.00;1.60;;;;;;;8.11;100.00;96947.69;10393986;28;20284;-76
2022/11/02 03:40:37;;;;;;;3.17;1.50;;;;;;;7.98;100.00;96960.97;10412052;28;20181;-76
2022/11/02 03:45:42;;;;;;;4.17;1.27;;;;;;;7.90;100.00;96960.84;10410649;28;20185;-76
2022/11/02 03:50:46;;;;;;;9.17;1.50;;;;;;;7.41;100.00;96984.13;10417442;28;20223;-76
2022/11/02 03:55:59;;;;;;;5.77;1.43;;;;;;;7.18;100.00;96982.63;10457726;28;20191;-76
2022/11/02 04:01:02;;;;;;;3.40;1.10;;;;;;;7.19;100.00;96982.47;10459614;28;20202;-75
2022/11/02 04:06:03;;;;;;;4.47;2.00;;;;;;;6.78;100.00;96974.56;10470271;28;20195;-76
2022/11/02 04:16:29;;;;;;;6.53;1.60;;;;;;;7.30;100.00;96989.41;10466913;28;20186;-75
2022/11/02 04:21:32;;;;;;;3.70;1.47;;;;;;;7.36;100.00;96990.66;10465995;28;20202;-75
2022/11/02 04:26:34;;;;;;;6.07;1.80;;;;;;;7.52;100.00;96984.97;10509842;28;20220;-75
2022/11/02 04:31:35;;;;;;;5.20;1.50;;;;;;;7.25;100.00;96975.94;10551226;28;20657;-75
2022/11/02 04:36:36;;;;;;;6.83;1.40;;;;;;;6.97;100.00;96980.84;10551265;28;20263;-75
2022/11/02 04:41:43;;;;;;;3.73;1.30;;;;;;;6.68;100.00;96975.44;10569828;28;20186;-75
2022/11/02 04:46:50;;;;;;;5.03;1.33;;;;;;;6.67;100.00;96972.00;10550137;28;20206;-75
2022/11/02 04:51:51;;;;;;;4.57;1.40;;;;;;;6.75;100.00;96972.22;10533240;28;20239;-75
2022/11/02 04:56:53;;;;;;;7.20;2.23;;;;;;;6.77;100.00;96967.69;10550129;28;20178;-76
2022/11/02 05:01:56;;;;;;;5.00;1.90;;;;;;;6.70;100.00;96963.94;10551931;28;20711;-75
2022/11/02 05:06:56;;;;;;;4.73;1.73;;;;;;;6.41;100.00;96971.53;10575454;28;20214;-76
2022/11/02 05:11:58;;;;;;;8.30;1.73;;;;;;;6.16;100.00;96975.28;10556828;28;20190;-75
2022/11/02 05:16:59;;;;;;;7.60;2.10;;;;;;;5.78;100.00;96971.28;10556845;28;20186;-75
2022/11/02 05:21:59;;;;;;;5.27;1.90;;;;;;;5.80;100.00;96978.00;10556129;28;20219;-75
2022/11/02 05:27:01;;;;;;;9.67;2.10;;;;;;;6.34;100.00;96971.19;10540013;28;20615;-76
2022/11/02 05:32:03;;;;;;;6.60;1.50;;;;;;;6.40;100.00;96967.25;10539707;28;20186;-76
2022/11/02 05:37:04;;;;;;;3.80;1.50;;;;;;;6.66;100.00;96966.91;10556320;28;20564;-76
2022/11/02 05:42:06;;;;;;;13.67;1.90;;;;;;;7.06;100.00;96969.66;10556761;28;20182;-75
2022/11/02 05:47:06;;;;;;;5.30;1.53;;;;;;;7.16;100.00;96966.28;10555700;28;20205;-75
2022/11/02 05:52:07;;;;;;;7.47;1.60;;;;;;;7.61;100.00;96955.50;10574529;28;20244;-75
2022/11/02 05:57:07;;;;;;;8.90;1.60;;;;;;;7.82;100.00;96952.84;10574366;28;20224;-76
2022/11/02 06:02:07;;;;;;;4.53;1.47;;;;;;;7.77;100.00;96960.25;10574200;28;20185;-75
2022/11/02 06:07:08;;;;;;;6.40;1.50;;;;;;;7.93;100.00;96950.13;10573813;28;20225;-76
2022/11/02 06:12:08;;;;;;;10.23;2.00;;;;;;;8.02;100.00;96962.38;10573745;28;20200;-75
2022/11/02 06:17:09;;;;;;;3.50;1.37;;;;;;;8.21;100.00;96969.41;10573652;28;20208;-75
2022/11/02 06:22:09;;;;;;;7.00;1.60;;;;;;;8.38;100.00;96974.91;10574233;28;20193;-75
2022/11/02 06:27:09;;;;;;;12.50;2.17;;;;;;;8.35;100.00;96983.03;10570402;28;20241;-75
2022/11/02 06:32:10;;;;;;;6.13;1.40;;;;;;;8.53;100.00;96989.25;10554200;28;20186;-76
2022/11/02 06:37:11;;;;;;;6.37;1.50;;;;;;;8.70;100.00;96971.25;10562117;28;20761;-76
2022/11/02 06:42:11;;;;;;;8.33;1.23;;;;;;;8.95;100.00;96975.06;10498615;28;20214;-75
2022/11/02 06:47:12;;;;;;;7.27;1.63;;;;;;;9.12;100.00;96964.88;10496754;28;20288;-75
2022/11/02 06:52:13;;;;;;;8.60;1.63;;;;;;;9.31;100.00;96963.97;10496692;28;20230;-75
2022/11/02 06:57:13;;;;;;;9.43;1.53;;;;;;;9.52;100.00;96958.53;10496526;28;20190;-75
2022/11/02 07:02:14;;;;;;;10.77;2.03;;;;;;;9.71;100.00;96968.94;10496373;28;20199;-76
2022/11/02 07:07:14;;;;;;;6.33;1.43;;;;;;;9.72;99.39;96961.91;10496556;28;20264;-76
2022/11/02 07:12:15;;;;;;;8.17;1.90;;;;;;;9.51;99.28;96967.34;10495693;28;20194;-75
2022/11/02 07:17:15;;;;;;;8.57;1.97;;;;;;;9.55;99.77;96982.63;10498729;28;20187;-75
2022/11/02 07:22:16;;;;;;;9.97;1.80;;;;;;;9.63;99.61;96987.97;10514619;28;20668;-75
2022/11/02 07:27:16;;;;;;;8.83;1.67;;;;;;;9.78;98.30;96992.72;10495355;28;20219;-75
2022/11/02 07:32:16;;;;;;;8.13;1.70;;;;;;;9.85;97.29;96985.09;10495479;28;20241;-75
2022/11/02 07:37:17;;;;;;;14.37;2.00;;;;;;;10.26;95.15;96977.72;10495260;28;20210;-75
2022/11/02 07:42:17;;;;;;;12.70;2.07;;;;;;;10.64;92.83;96960.09;10494924;28;20525;-75
2022/11/02 07:47:18;;;;;;;9.60;1.73;;;;;;;10.92;91.43;96955.59;10476621;28;20227;-75
2022/11/02 07:52:19;;;;;;;7.97;1.67;;;;;;;11.06;90.26;96965.50;10493245;28;20617;-75
2022/11/02 07:57:19;;;;;;;8.05;1.85;;;;;;;11.33;89.17;96960.28;10534211;28;20194;-75
2022/11/02 08:02:20;;;;;;;13.27;2.00;;;;;;;11.43;88.53;96947.88;10562938;28;20186;-75
2022/11/02 08:07:20;;;;;;;4.03;1.33;;;;;;;11.67;86.19;96935.84;10576253;28;20709;-75
2022/11/02 08:12:20;;;;;;;6.63;1.85;;;;;;;11.78;86.29;96949.50;10575034;28;20628;-75
2022/11/02 08:17:21;;;;;;;11.73;2.00;;;;;;;11.98;86.13;96951.09;10579587;28;20274;-74
2022/11/02 08:22:21;;;;;;;9.23;2.22;;;;;;;11.82;86.06;96950.00;10549958;28;20897;-74
2022/11/02 08:27:22;;;;;;;14.52;2.75;;;;;;;11.83;86.24;96961.34;10510537;28;20275;-75
2022/11/02 08:32:22;;;;;;;10.65;2.05;;;;;;;12.39;85.42;96959.06;10511657;28;20199;-75
2022/11/02 08:37:23;;;;;;;9.77;2.22;;;;;;;12.21;85.34;96953.94;10498317;28;20211;-75
2022/11/02 08:42:23;;;;;;;10.40;2.55;;;;;;;12.83;84.62;96964.88;10490664;28;20721;-75
2022/11/02 08:47:23;;;;;;;12.10;2.30;;;;;;;12.75;83.71;96958.78;10489531;28;20292;-76
2022/11/02 08:52:24;;;;;;;12.00;2.20;;;;;;;13.14;82.83;96960.72;10490505;28;20280;-75
2022/11/02 08:57:24;;;;;;;8.55;2.25;;;;;;;13.07;81.24;96936.09;10489527;28;20206;-76
2022/11/02 09:02:24;;;;;;;11.75;2.20;;;;;;;12.74;83.01;96965.84;10515346;28;20568;-75
2022/11/02 09:07:25;;;;;;;11.13;2.17;;;;;;;12.95;82.49;96954.00;10531904;28;20218;-75
2022/11/02 09:12:25;;;;;;;11.13;2.70;;;;;;;13.52;81.47;96959.22;10531075;28;20190;-75
2022/11/02 09:17:26;;;;;;;10.93;2.08;;;;;;;13.14;82.29;96981.75;10531466;28;20186;-75
2022/11/02 09:22:26;;;;;;;8.18;1.88;;;;;;;12.78;81.44;96971.59;10530678;28;20711;-76
2022/11/02 09:27:26;;;;;;;9.70;2.15;;;;;;;13.51;80.99;96975.97;10530717;28;20218;-76
2022/11/02 09:32:28;;;;;;;6.57;1.83;;;;;;;14.28;75.60;96922.63;10530698;28;20195;-75
2022/11/02 09:37:29;;;;;;;7.40;2.30;;;;;;;13.87;76.42;96953.63;10530762;28;20202;-75
2022/11/02 09:42:48;;;;;;;6.82;1.60;;;;;;;12.94;81.79;97023.34;10532379;28;20196;-75
2022/11/02 09:47:52;;;;;;;11.77;1.73;;;;;;;13.10;81.99;97027.81;10530781;28;20220;-75
2022/11/02 09:52:57;;;;;;;8.10;1.30;;;;;;;13.27;82.37;97037.31;10530257;28;20264;-75
2022/11/02 09:58:04;;;;;;;4.15;1.50;;;;;;;12.69;84.27;97054.88;10530372;28;20185;-75
2022/11/02 10:09:34;;;;;;;8.18;1.85;;;;;;;12.65;87.62;97066.72;10528947;28;20222;-75
2022/11/02 10:14:52;;;;;;;10.27;2.30;;;;;;;13.15;85.75;97057.88;10530307;28;20194;-73
2022/11/02 10:19:55;;;;;;;7.30;1.60;;;;;;;14.73;78.18;96980.88;10510047;28;20325;-76
2022/11/02 10:24:56;;;;;;;8.85;1.60;;;;;;;15.85;73.47;96953.75;10495776;28;20195;-76
2022/11/02 10:30:10;;;;;;;8.57;1.65;;;;;;;15.67;72.10;96942.72;10496040;28;20229;-75
2022/11/02 10:40:54;;;;;;;5.20;1.40;;;;;;;14.20;77.55;97008.81;10330092;28;20221;-75
2022/11/02 10:46:09;;;;;;;5.95;1.85;;;;;;;15.87;71.72;96940.34;10313898;28;20713;-76
2022/11/02 10:51:11;;;;;;;5.32;1.50;;;;;;;15.72;73.65;96976.50;10331355;28;20218;-76
2022/11/02 10:56:47;;;;;;;6.72;1.80;;;;;;;14.90;70.91;96931.44;10329663;28;20658;-75
2022/11/02 11:01:50;;;;;;;6.55;1.48;;;;;;;16.01;67.98;96910.44;10282036;28;20202;-76
2022/11/02 11:06:52;;;;;;;6.38;1.70;;;;;;;14.98;69.74;96939.28;10330176;28;20686;-75
2022/11/02 11:12:01;;;;;;;7.95;2.08;;;;;;;15.95;67.44;96929.66;10327528;28;20204;-75
2022/11/02 11:17:01;;;;;;;6.03;1.67;;;;;;;16.46;63.49;96878.56;10328914;28;20186;-75
2022/11/02 11:22:02;;;;;;;4.65;1.50;;;;;;;17.35;60.28;96852.53;10313041;28;20224;-75
2022/11/02 11:27:05;;;;;;;9.20;2.30;;;;;;;14.28;67.41;96921.81;10329668;28;20249;-75
2022/11/02 11:32:23;;;;;;;7.75;2.25;;;;;;;15.23;67.66;96938.22;10329797;28;20272;-75
2022/11/02 11:37:24;;;;;;;8.73;1.80;;;;;;;13.43;74.04;97017.28;10328899;28;20241;-75
2022/11/02 11:42:28;;;;;;;8.80;2.13;;;;;;;12.62;76.73;97049.44;10370004;28;20680;-75
2022/11/02 11:47:32;;;;;;;6.28;1.38;;;;;;;14.42;72.84;96992.22;10351176;28;20225;-75
2022/11/02 11:52:32;;;;;;;13.07;1.75;;;;;;;13.25;75.16;97009.56;10351841;28;20194;-75
2022/11/02 11:57:33;;;;;;;6.75;1.90;;;;;;;13.66;73.09;96980.53;10351885;28;20562;-76
2022/11/02 12:02:35;;;;;;;10.43;1.90;;;;;;;12.88;77.56;97032.72;10368671;28;20265;-76
2022/11/02 12:08:00;;;;;;;8.27;1.63;;;;;;;12.77;77.76;97039.13;10351416;28;20244;-76
2022/11/02 12:13:03;;;;;;;5.65;1.52;;;;;;;12.75;78.50;97041.06;10349948;28;20196;-76
2022/11/02 12:18:16;;;;;;;9.38;1.73;;;;;;;12.31;79.35;97043.94;10367368;28;20563;-76
2022/11/02 12:23:46;;;;;;;6.45;2.03;;;;;;;12.35;81.66;97060.22;10335226;28;20224;-76
2022/11/02 12:29:13;;;;;;;12.10;1.90;;;;;;;13.12;79.17;97031.91;10347477;28;20217;-75
2022/11/02 12:34:38;;;;;;;7.28;1.95;;;;;;;13.51;78.19;97018.09;10353358;28;20200;-76
2022/11/02 12:39:57;;;;;;;7.03;1.55;;;;;;;13.96;72.83;96949.97;10393147;28;20244;-76
2022/11/02 12:45:15;;;;;;;7.47;2.03;;;;;;;14.82;73.88;96981.59;10399809;28;20208;-75
2022/11/02 12:50:20;;;;;;;10.18;1.83;;;;;;;15.66;68.99;96933.13;10367346;28;20225;-75
2022/11/02 12:55:24;;;;;;;9.88;1.80;;;;;;;14.68;71.78;96975.28;10349522;28;20224;-75
2022/11/02 13:00:24;;;;;;;6.93;1.73;;;;;;;14.03;72.07;96976.47;10370561;28;20274;-75
2022/11/02 13:05:29;;;;;;;4.63;1.58;;;;;;;14.17;68.72;96919.59;10399636;28;20285;-76
2022/11/02 13:10:37;;;;;;;6.68;1.83;;;;;;;14.61;65.66;96890.00;10350576;28;20251;-75
2022/11/02 13:15:38;;;;;;;3.67;1.42;;;;;;;15.24;64.38;96879.19;10315900;28;20190;-76
2022/11/02 13:20:42;;;;;;;4.07;1.40;;;;;;;14.37;65.10;96883.06;10345236;28;20197;-76
2022/11/02 13:25:48;;;;;;;7.57;1.67;;;;;;;14.21;64.61;96868.16;10391894;28;20188;-74
2022/11/02 13:30:49;;;;;;;7.75;1.80;;;;;;;12.96;65.19;96855.72;10388910;28;20678;-75
2022/11/02 13:35:51;;;;;;;8.30;1.80;;;;;;;13.62;65.49;96880.03;10360754;28;20316;-75
2022/11/02 13:41:18;;;;;;;6.90;2.08;;;;;;;13.24;65.04;96866.66;10366038;28;20668;-75
2022/11/02 13:46:51;;;;;;;9.75;1.70;;;;;;;13.96;65.58;96901.75;10358330;28;20661;-75
2022/11/02 13:51:56;;;;;;;5.97;1.48;;;;;;;14.66;62.39;96855.19;10360811;28;20204;-75
2022/11/02 13:56:57;;;;;;;4.22;1.27;;;;;;;13.79;65.91;96895.75;10355939;28;20189;-75
2022/11/02 14:02:00;;;;;;;4.97;1.52;;;;;;;14.19;64.89;96888.59;10356143;28;20185;-74
2022/11/02 14:07:04;;;;;;;5.68;1.52;;;;;;;14.96;63.12;96880.59;10355872;28;20235;-76
2022/11/02 14:12:20;;;;;;;5.57;1.25;;;;;;;15.09;62.85;96887.06;10373561;28;20650;-76
2022/11/02 14:17:21;;;;;;;4.55;1.67;;;;;;;14.30;62.70;96864.47;10373718;28;20665;-75
2022/11/02 14:22:22;;;;;;;9.20;1.77;;;;;;;14.73;63.13;96888.56;10354611;28;20548;-75
2022/11/02 14:27:22;;;;;;;2.17;1.15;;;;;;;15.20;59.14;96835.66;10372609;28;20221;-75
2022/11/02 14:32:39;;;;;;;8.20;1.90;;;;;;;13.07;64.75;96888.75;10372957;28;20197;-75
2022/11/02 14:38:07;;;;;;;6.20;1.55;;;;;;;11.70;69.01;96940.78;10371975;28;20579;-75
2022/11/02 14:43:49;;;;;;;5.40;1.70;;;;;;;11.60;71.58;96993.38;10369483;28;20584;-75
2022/11/02 14:48:54;;;;;;;10.10;1.98;;;;;;;10.97;72.92;96986.59;10367852;28;20217;-75
2022/11/02 14:53:59;;;;;;;3.33;1.50;;;;;;;11.39;73.60;96999.84;10366344;28;20694;-75
2022/11/02 14:59:00;;;;;;;8.30;1.77;;;;;;;11.02;74.49;97010.53;10332499;28;20217;-75
2022/11/02 15:04:11;;;;;;;7.20;1.80;;;;;;;10.94;75.50;97028.84;10347016;28;20670;-76
2022/11/02 15:09:53;;;;;;;6.03;1.90;;;;;;;10.70;75.62;97025.84;10353853;28;20712;-74
2022/11/02 15:15:20;;;;;;;5.43;1.20;;;;;;;10.56;76.27;97036.00;10346743;28;20194;-76
2022/11/02 15:20:28;;;;;;;8.00;2.30;;;;;;;10.31;75.98;97023.44;10370641;28;20197;-76
2022/11/02 15:25:32;;;;;;;36.90;19.90;;;;;;;10.29;76.80;97040.25;10369155;28;20193;-74
2022/11/02 15:30:41;;;;;;;30.67;14.30;;;;;;;10.18;76.22;97028.19;10353764;28;20288;-74
2022/11/02 15:35:42;;;;;;;33.17;18.13;;;;;;;9.96;77.63;97052.97;10336194;28;20243;-75
2022/11/02 15:40:47;;;;;;;19.70;10.47;;;;;;;9.87;78.47;97067.72;10352699;28;20192;-75
2022/11/02 15:45:52;;;;;;;9.93;4.67;;;;;;;9.40;79.77;97086.03;10352016;28;20193;-74
2022/11/02 15:51:15;;;;;;;6.43;1.83;;;;;;;9.24;81.69;97113.56;10325489;28;20221;-76
2022/11/02 15:56:44;;;;;;;7.77;2.83;;;;;;;8.87;83.86;97139.53;10339315;28;20206;-75
2022/11/02 16:01:44;;;;;;;10.60;7.90;;;;;;;8.57;85.93;97142.09;10311125;28;20190;-75
2022/11/02 16:06:45;;;;;;;8.53;3.20;;;;;;;8.46;87.62;97157.84;10327957;28;20236;-75
2022/11/02 16:12:12;;;;;;;7.13;2.40;;;;;;;8.00;89.88;97149.50;10311052;28;20194;-75
2022/11/02 16:17:21;;;;;;;9.70;2.83;;;;;;;7.61;93.49;97159.72;10309387;28;20197;-75
2022/11/02 16:22:24;;;;;;;7.40;2.77;;;;;;;7.60;94.78;97167.66;10328317;28;20205;-75
2022/11/02 16:27:24;;;;;;;11.47;2.40;;;;;;;7.25;97.09;97180.00;10325577;28;20532;-75
2022/11/02 16:32:25;;;;;;;8.03;2.83;;;;;;;6.91;100.00;97181.91;10325107;28;20675;-75
2022/11/02 16:37:25;;;;;;;8.57;2.80;;;;;;;6.76;100.00;97195.16;10349834;28;20236;-75
2022/11/02 16:42:26;;;;;;;6.73;2.43;;;;;;;6.66;100.00;97188.19;10333293;28;20634;-74
2022/11/02 16:47:40;;;;;;;4.40;2.17;;;;;;;6.43;100.00;97186.47;10366909;28;21009;-74
2022/11/02 16:52:40;;;;;;;7.37;2.50;;;;;;;6.57;100.00;97177.56;10366220;28;20692;-74
2022/11/02 16:57:43;;;;;;;5.10;2.33;;;;;;;6.59;100.00;97187.88;10366542;28;20196;-74
2022/11/02 17:02:44;;;;;;;10.17;4.40;;;;;;;6.50;100.00;97194.59;10348256;28;20753;-74
2022/11/02 17:08:03;;;;;;;7.10;3.50;;;;;;;6.53;100.00;97203.97;10347609;28;20209;-75
2022/11/02 17:13:08;;;;;;;8.50;3.33;;;;;;;6.39;100.00;97203.25;10348838;28;20197;-75
2022/11/02 17:18:08;;;;;;;8.73;3.00;;;;;;;6.30;100.00;97209.16;10367305;28;20263;-75
2022/11/02 17:23:27;;;;;;;34.37;4.90;;;;;;;6.24;100.00;97212.22;10366564;28;20196;-74
2022/11/02 17:28:40;;;;;;;60.10;25.90;;;;;;;6.05;100.00;97211.03;10365494;28;20482;-74
2022/11/02 17:33:42;;;;;;;20.97;9.03;;;;;;;5.99;100.00;97211.47;10366625;28;20688;-74
2022/11/02 17:38:42;;;;;;;14.37;5.90;;;;;;;5.79;100.00;97220.75;10367248;28;20599;-75
2022/11/02 17:43:43;;;;;;;8.20;3.37;;;;;;;5.58;100.00;97217.97;10367231;28;20196;-74
2022/11/02 17:48:43;;;;;;;6.87;2.80;;;;;;;5.65;100.00;97213.97;10365650;28;20223;-75
2022/11/02 17:53:43;;;;;;;16.27;4.77;;;;;;;5.68;100.00;97218.94;10366181;28;20251;-74
2022/11/02 17:58:44;;;;;;;13.43;4.53;;;;;;;5.60;100.00;97228.25;10365998;28;20189;-75
2022/11/02 18:03:44;;;;;;;11.10;4.53;;;;;;;5.47;100.00;97223.94;10365404;28;20685;-75
2022/11/02 18:09:20;;;;;;;6.83;3.37;;;;;;;5.39;100.00;97225.44;10366924;28;20627;-75
2022/11/02 18:14:15;;;;;;;11.00;3.90;;;;;;;5.30;100.00;97232.16;10361166;28;20201;-75
2022/11/02 18:19:32;;;;;;;9.80;3.43;;;;;;;5.29;100.00;97249.47;10348359;28;20185;-75
2022/11/02 18:24:32;;;;;;;7.07;3.93;;;;;;;5.34;100.00;97247.41;10337028;28;20208;-74
2022/11/02 18:29:33;;;;;;;11.00;3.97;;;;;;;5.45;100.00;97240.56;10363033;28;20209;-74
2022/11/02 18:34:33;;;;;;;15.87;4.50;;;;;;;5.08;100.00;97235.44;10361912;28;20189;-74
2022/11/02 18:39:34;;;;;;;9.60;3.43;;;;;;;5.21;100.00;97231.03;10367949;28;20602;-74
2022/11/02 18:44:34;;;;;;;10.43;3.73;;;;;;;5.29;100.00;97238.25;10371312;28;20209;-76
2022/11/02 18:49:35;;;;;;;10.37;4.27;;;;;;;5.10;100.00;97238.75;10369261;28;20217;-75
2022/11/02 18:54:35;;;;;;;12.13;4.23;;;;;;;5.08;100.00;97233.66;10372233;28;20193;-75
2022/11/02 18:59:36;;;;;;;9.60;4.20;;;;;;;5.05;100.00;97225.25;10372070;28;20189;-75
2022/11/02 19:04:36;;;;;;;9.40;3.67;;;;;;;5.08;100.00;97227.63;10371940;28;20219;-75
2022/11/02 19:09:36;;;;;;;7.83;3.17;;;;;;;5.23;100.00;97223.94;10371824;28;20193;-75
2022/11/02 19:14:39;;;;;;;11.87;3.40;;;;;;;5.26;100.00;97218.53;10371457;28;20213;-75
2022/11/02 19:19:41;;;;;;;6.37;2.70;;;;;;;5.30;100.00;97217.38;10371952;28;20225;-75
2022/11/02 19:24:42;;;;;;;6.93;3.40;;;;;;;5.41;100.00;97202.78;10370924;28;20201;-75
2022/11/02 19:29:42;;;;;;;6.73;3.43;;;;;;;5.38;100.00;97213.41;10371199;28;20194;-75
2022/11/02 19:34:43;;;;;;;12.53;3.07;;;;;;;5.15;100.00;97218.47;10369236;28;20197;-75
2022/11/02 19:39:43;;;;;;;14.03;4.13;;;;;;;4.92;100.00;97209.75;10370419;28;20327;-75
2022/11/02 19:44:43;;;;;;;9.63;2.90;;;;;;;5.11;100.00;97211.84;10369891;28;20667;-75
2022/11/02 19:49:44;;;;;;;10.67;4.43;;;;;;;4.99;100.00;97214.38;10369632;28;20192;-75
2022/11/02 19:54:44;;;;;;;10.57;3.33;;;;;;;4.71;100.00;97206.88;10369732;28;20193;-75
2022/11/02 19:59:45;;;;;;;9.87;2.70;;;;;;;4.75;100.00;97208.34;10369347;28;20220;-74
2022/11/02 20:04:45;;;;;;;6.33;2.90;;;;;;;4.64;100.00;97217.69;10369174;28;20238;-75
2022/11/02 20:09:45;;;;;;;6.90;2.83;;;;;;;4.50;100.00;97214.38;10367798;28;20526;-75
2022/11/02 20:14:46;;;;;;;9.40;2.73;;;;;;;4.41;100.00;97223.63;10368403;28;20551;-75
2022/11/02 20:19:46;;;;;;;8.83;3.03;;;;;;;4.49;100.00;97226.53;10369390;28;20271;-74
2022/11/02 20:24:46;;;;;;;10.57;3.60;;;;;;;4.40;100.00;97219.41;10368033;28;20288;-75
2022/11/02 20:29:47;;;;;;;15.47;3.93;;;;;;;4.39;100.00;97222.91;10368461;28;20193;-75
2022/11/02 20:34:47;;;;;;;8.50;3.20;;;;;;;4.40;100.00;97222.81;10368493;28;20213;-75
2022/11/02 20:39:48;;;;;;;8.77;2.50;;;;;;;4.42;100.00;97227.88;10367688;28;20283;-75
2022/11/02 20:44:49;;;;;;;11.47;3.03;;;;;;;4.35;100.00;97231.81;10368134;28;20197;-74
2022/11/02 20:49:50;;;;;;;10.10;3.17;;;;;;;4.39;100.00;97241.06;10361960;28;20201;-75
2022/11/02 21:01:19;;;;;;;8.20;2.43;;;;;;;4.11;100.00;97235.16;10290860;28;20242;-75
2022/11/02 21:06:19;;;;;;;7.87;2.47;;;;;;;4.14;100.00;97234.97;10352002;28;20213;-74
2022/11/02 21:16:49;;;;;;;10.60;2.67;;;;;;;4.23;100.00;97247.31;10330435;28;20201;-74
2022/11/02 21:21:49;;;;;;;11.73;2.70;;;;;;;4.17;100.00;97247.72;10367367;28;20605;-74
2022/11/02 21:26:50;;;;;;;8.90;3.20;;;;;;;4.11;100.00;97243.75;10366754;28;20216;-74
2022/11/02 21:31:50;;;;;;;8.13;3.00;;;;;;;4.12;100.00;97254.97;10348963;28;20327;-75
2022/11/02 21:36:50;;;;;;;7.43;2.93;;;;;;;3.98;100.00;97255.91;10366629;28;20237;-75
2022/11/02 21:41:51;;;;;;;4.93;2.63;;;;;;;4.01;100.00;97265.22;10365963;28;20571;-75
2022/11/02 21:46:51;;;;;;;7.07;2.33;;;;;;;4.06;100.00;97260.59;10366398;28;20196;-75
2022/11/02 21:51:52;;;;;;;11.50;2.70;;;;;;;4.08;100.00;97263.88;10366598;28;20201;-75
2022/11/02 21:56:52;;;;;;;7.90;2.90;;;;;;;4.09;100.00;97270.75;10365539;28;20193;-75
2022/11/02 22:01:52;;;;;;;7.60;2.60;;;;;;;3.93;100.00;97269.13;10366058;28;20224;-75
2022/11/02 22:06:54;;;;;;;10.10;3.00;;;;;;;4.03;100.00;97261.59;10365427;28;20192;-75
2022/11/02 22:17:14;;;;;;;6.27;2.43;;;;;;;3.92;100.00;97254.53;10386898;28;20213;-74
2022/11/02 22:22:14;;;;;;;6.47;2.60;;;;;;;4.05;100.00;97246.78;10373758;28;20702;-74
2022/11/02 22:27:14;;;;;;;11.17;3.30;;;;;;;4.06;100.00;97243.25;10374472;28;20276;-74
2022/11/02 22:32:15;;;;;;;9.87;3.00;;;;;;;3.98;100.00;97239.50;10374461;28;20190;-74
2022/11/02 22:42:35;;;;;;;9.60;2.10;;;;;;;3.68;100.00;97240.63;10372790;28;20205;-75
2022/11/02 22:47:36;;;;;;;7.33;2.40;;;;;;;3.66;100.00;97245.91;10385901;28;20208;-74
2022/11/02 22:52:36;;;;;;;7.17;2.47;;;;;;;3.81;100.00;97238.84;10373219;28;20564;-74
2022/11/02 22:57:36;;;;;;;9.33;2.33;;;;;;;3.84;100.00;97243.00;10374051;28;20223;-74
2022/11/02 23:02:37;;;;;;;6.20;2.17;;;;;;;3.87;100.00;97246.22;10373387;28;20185;-74
2022/11/02 23:07:37;;;;;;;8.30;2.07;;;;;;;3.81;100.00;97245.81;10373197;28;20212;-75
2022/11/02 23:12:37;;;;;;;5.43;2.13;;;;;;;3.75;100.00;97244.44;10372872;28;20685;-74
2022/11/02 23:17:38;;;;;;;13.33;2.73;;;;;;;3.78;100.00;97246.81;10372952;28;20751;-75
2022/11/02 23:33:00;;;;;;;8.30;2.00;;;;;;;3.72;100.00;97242.06;10371744;28;20311;-74
2022/11/02 23:38:03;;;;;;;7.83;2.10;;;;;;;3.74;100.00;97232.44;10371960;28;20239;-74
2022/11/02 23:43:04;;;;;;;7.37;2.10;;;;;;;3.59;100.00;97229.09;10371184;28;20224;-74
2022/11/02 23:48:06;;;;;;;7.10;2.17;;;;;;;3.49;100.00;97234.03;10354194;28;20611;-75
2022/11/02 23:58:28;;;;;;;3.93;1.80;;;;;;;3.56;100.00;97227.50;10384269;28;20221;-74
